Etusivu
METAR-TAF:

METAR-TAF

Lentoasemat :

Peachtree City Airport (Falcon Field)

Atlanta, Georgia, Yhdysvallat

Leveyspiiri: 33-21-19N, Pituuspiiri: 084-34-01W, korkeus merenpinnasta: 246 m

Tämänhetkinen sää

Tämä raportti tehtiin 19 minuuttia sitten, kello 13.10 UTC
tyyntä
Lämpötila 14°C
Kosteus 100%
Ilmanpaine 1022 hPa
Näkyvyys: 1.6 km
Hajanaisia pilviä 300 ft:n korkeudessa
Hajonneita pilviä 1000 ft:n korkeudessa
Pilvistä 1600 ft:n korkeudessa
utua

METAR: KFFC 281310Z AUTO 00000KT 1SM BR SCT003 BKN010 OVC016 14/14 A3018 RMK AO2 T01440144

Aika: 08:29 (13:29 UTC)


TAF: puuttuu

Säähavainnot ja -ennusteet yli 4000 lentoasemalta (METAR- ja TAF-raportit).

Käytössä olevat sääasemat on merkitty karttaan keltaisilla ja punaisilla pisteillä.

Aseta hiiri pisteen päälle nähdäksesi sääaseman nimen.

Klikkaa sitten nähdäksesi säähavainnot ja -ennusteet.

Kartan vaihtaminen: klikkaa mustalla rastilla varustettuja vihreitä pisteitä, niin voit zoomata sisään; viivalla varustettua vihreää pistettä, niin voit zoomata ulos tai vihreitä nuolia, niin pääset viereisille kartoille.


METAR-TAF: